sensor_id;sensor_type;location;lat;lon;timestamp;temperature;humidity
16955;DHT22;8594;52.052;8.354;2023-05-10T00:01:22;17.30;99.90
16955;DHT22;8594;52.052;8.354;2023-05-10T00:03:49;17.20;99.90
16955;DHT22;8594;52.052;8.354;2023-05-10T00:06:16;17.20;99.90
16955;DHT22;8594;52.052;8.354;2023-05-10T00:08:43;17.10;99.90
16955;DHT22;8594;52.052;8.354;2023-05-10T00:11:10;17.00;99.90
16955;DHT22;8594;52.052;8.354;2023-05-10T00:13:37;17.00;99.90
16955;DHT22;8594;52.052;8.354;2023-05-10T00:16:04;16.90;99.90
16955;DHT22;8594;52.052;8.354;2023-05-10T00:18:33;16.90;99.90
16955;DHT22;8594;52.052;8.354;2023-05-10T00:21:00;17.20;99.90
16955;DHT22;8594;52.052;8.354;2023-05-10T00:23:26;17.20;99.90
16955;DHT22;8594;52.052;8.354;2023-05-10T00:25:53;17.30;99.90
16955;DHT22;8594;52.052;8.354;2023-05-10T00:28:20;17.20;99.90
16955;DHT22;8594;52.052;8.354;2023-05-10T00:30:47;17.10;99.90
16955;DHT22;8594;52.052;8.354;2023-05-10T00:33:14;17.00;99.90
16955;DHT22;8594;52.052;8.354;2023-05-10T00:35:42;17.00;99.90
16955;DHT22;8594;52.052;8.354;2023-05-10T00:38:09;17.00;99.90
16955;DHT22;8594;52.052;8.354;2023-05-10T00:40:36;17.10;99.90
16955;DHT22;8594;52.052;8.354;2023-05-10T00:43:03;17.30;99.90
16955;DHT22;8594;52.052;8.354;2023-05-10T00:45:30;17.40;99.90
16955;DHT22;8594;52.052;8.354;2023-05-10T00:47:58;17.40;99.90
16955;DHT22;8594;52.052;8.354;2023-05-10T00:50:25;17.20;99.90
16955;DHT22;8594;52.052;8.354;2023-05-10T00:52:53;17.10;99.90
16955;DHT22;8594;52.052;8.354;2023-05-10T00:55:21;17.00;99.90
16955;DHT22;8594;52.052;8.354;2023-05-10T00:57:48;16.90;99.90
16955;DHT22;8594;52.052;8.354;2023-05-10T01:00:15;16.80;99.90
16955;DHT22;8594;52.052;8.354;2023-05-10T01:02:44;16.80;99.90
16955;DHT22;8594;52.052;8.354;2023-05-10T01:05:11;16.80;99.90
16955;DHT22;8594;52.052;8.354;2023-05-10T01:07:39;16.80;99.90
16955;DHT22;8594;52.052;8.354;2023-05-10T01:10:09;16.80;99.90
16955;DHT22;8594;52.052;8.354;2023-05-10T01:12:40;16.70;99.90
16955;DHT22;8594;52.052;8.354;2023-05-10T01:15:10;16.70;99.90
16955;DHT22;8594;52.052;8.354;2023-05-10T01:17:39;16.70;99.90
16955;DHT22;8594;52.052;8.354;2023-05-10T01:20:10;16.70;99.90
16955;DHT22;8594;52.052;8.354;2023-05-10T01:26:13;17.10;99.90
16955;DHT22;8594;52.052;8.354;2023-05-10T01:29:05;17.00;99.90
16955;DHT22;8594;52.052;8.354;2023-05-10T01:32:03;16.80;99.90
16955;DHT22;8594;52.052;8.354;2023-05-10T01:34:46;16.80;99.90
16955;DHT22;8594;52.052;8.354;2023-05-10T01:37:21;16.80;99.90
16955;DHT22;8594;52.052;8.354;2023-05-10T01:40:00;16.80;99.90
16955;DHT22;8594;52.052;8.354;2023-05-10T01:42:38;16.70;99.90
16955;DHT22;8594;52.052;8.354;2023-05-10T01:45:14;16.60;99.90
16955;DHT22;8594;52.052;8.354;2023-05-10T01:47:51;16.50;99.90
16955;DHT22;8594;52.052;8.354;2023-05-10T01:50:27;16.50;99.90
16955;DHT22;8594;52.052;8.354;2023-05-10T01:52:58;16.40;99.90
16955;DHT22;8594;52.052;8.354;2023-05-10T01:55:29;16.30;99.90
16955;DHT22;8594;52.052;8.354;2023-05-10T01:58:02;16.30;99.90
16955;DHT22;8594;52.052;8.354;2023-05-10T02:00:33;16.30;99.90
16955;DHT22;8594;52.052;8.354;2023-05-10T02:03:05;16.30;99.90
16955;DHT22;8594;52.052;8.354;2023-05-10T02:05:36;16.50;99.90
16955;DHT22;8594;52.052;8.354;2023-05-10T02:08:06;16.40;99.90
16955;DHT22;8594;52.052;8.354;2023-05-10T02:10:35;16.40;99.90
16955;DHT22;8594;52.052;8.354;2023-05-10T02:13:03;16.40;99.90
16955;DHT22;8594;52.052;8.354;2023-05-10T02:15:32;16.50;99.90
16955;DHT22;8594;52.052;8.354;2023-05-10T02:18:03;16.50;99.90
16955;DHT22;8594;52.052;8.354;2023-05-10T02:20:32;16.60;99.90
16955;DHT22;8594;52.052;8.354;2023-05-10T02:23:01;16.60;99.90
16955;DHT22;8594;52.052;8.354;2023-05-10T02:25:31;16.40;99.90
16955;DHT22;8594;52.052;8.354;2023-05-10T02:28:01;16.40;99.90
16955;DHT22;8594;52.052;8.354;2023-05-10T02:30:31;16.40;99.90
16955;DHT22;8594;52.052;8.354;2023-05-10T02:33:00;16.30;99.90
16955;DHT22;8594;52.052;8.354;2023-05-10T02:35:32;16.30;99.90
16955;DHT22;8594;52.052;8.354;2023-05-10T02:38:00;16.20;99.90
16955;DHT22;8594;52.052;8.354;2023-05-10T02:40:28;16.10;99.90
16955;DHT22;8594;52.052;8.354;2023-05-10T02:42:56;16.10;99.90
16955;DHT22;8594;52.052;8.354;2023-05-10T02:45:28;16.00;99.90
16955;DHT22;8594;52.052;8.354;2023-05-10T02:47:56;16.00;99.90
16955;DHT22;8594;52.052;8.354;2023-05-10T02:50:26;16.10;99.90
16955;DHT22;8594;52.052;8.354;2023-05-10T02:53:00;16.10;99.90
16955;DHT22;8594;52.052;8.354;2023-05-10T02:55:33;16.10;99.90
16955;DHT22;8594;52.052;8.354;2023-05-10T02:58:03;16.00;99.90
16955;DHT22;8594;52.052;8.354;2023-05-10T03:00:31;16.00;99.90
16955;DHT22;8594;52.052;8.354;2023-05-10T03:02:58;15.90;99.90
16955;DHT22;8594;52.052;8.354;2023-05-10T03:05:26;15.80;99.90
16955;DHT22;8594;52.052;8.354;2023-05-10T03:07:55;15.80;99.90
16955;DHT22;8594;52.052;8.354;2023-05-10T03:10:27;15.90;99.90
16955;DHT22;8594;52.052;8.354;2023-05-10T03:13:07;16.00;99.90
16955;DHT22;8594;52.052;8.354;2023-05-10T03:15:50;16.00;99.90
16955;DHT22;8594;52.052;8.354;2023-05-10T03:18:29;15.90;99.90
16955;DHT22;8594;52.052;8.354;2023-05-10T03:21:08;16.00;99.90
16955;DHT22;8594;52.052;8.354;2023-05-10T03:23:42;15.90;99.90
16955;DHT22;8594;52.052;8.354;2023-05-10T03:26:17;16.00;99.90
16955;DHT22;8594;52.052;8.354;2023-05-10T03:28:47;16.00;99.90
16955;DHT22;8594;52.052;8.354;2023-05-10T03:31:15;15.90;99.90
16955;DHT22;8594;52.052;8.354;2023-05-10T03:33:46;15.90;99.90
16955;DHT22;8594;52.052;8.354;2023-05-10T03:36:14;15.70;99.90
16955;DHT22;8594;52.052;8.354;2023-05-10T03:38:42;15.70;99.90
16955;DHT22;8594;52.052;8.354;2023-05-10T03:41:09;15.70;99.90
16955;DHT22;8594;52.052;8.354;2023-05-10T03:43:36;15.40;99.90
16955;DHT22;8594;52.052;8.354;2023-05-10T03:46:04;15.30;99.90
16955;DHT22;8594;52.052;8.354;2023-05-10T03:48:32;15.40;99.90
16955;DHT22;8594;52.052;8.354;2023-05-10T03:50:59;15.60;99.90
16955;DHT22;8594;52.052;8.354;2023-05-10T03:53:26;15.50;99.90
16955;DHT22;8594;52.052;8.354;2023-05-10T03:55:54;15.60;99.90
16955;DHT22;8594;52.052;8.354;2023-05-10T03:58:21;15.40;99.90
16955;DHT22;8594;52.052;8.354;2023-05-10T04:00:48;15.30;99.90
16955;DHT22;8594;52.052;8.354;2023-05-10T04:03:14;15.10;99.90
16955;DHT22;8594;52.052;8.354;2023-05-10T04:05:42;15.20;99.90
16955;DHT22;8594;52.052;8.354;2023-05-10T04:08:08;15.10;99.90
16955;DHT22;8594;52.052;8.354;2023-05-10T04:10:35;14.90;99.90
16955;DHT22;8594;52.052;8.354;2023-05-10T04:13:03;14.90;99.90
16955;DHT22;8594;52.052;8.354;2023-05-10T04:15:31;15.00;99.90
16955;DHT22;8594;52.052;8.354;2023-05-10T04:17:57;14.90;99.90
16955;DHT22;8594;52.052;8.354;2023-05-10T04:20:24;14.80;99.90
16955;DHT22;8594;52.052;8.354;2023-05-10T04:22:51;14.80;99.90
16955;DHT22;8594;52.052;8.354;2023-05-10T04:25:18;14.90;99.90
16955;DHT22;8594;52.052;8.354;2023-05-10T04:27:44;14.80;99.90
16955;DHT22;8594;52.052;8.354;2023-05-10T04:30:13;14.90;99.90
16955;DHT22;8594;52.052;8.354;2023-05-10T04:32:40;14.90;99.90
16955;DHT22;8594;52.052;8.354;2023-05-10T04:35:07;14.80;99.90
16955;DHT22;8594;52.052;8.354;2023-05-10T04:37:35;14.90;99.90
16955;DHT22;8594;52.052;8.354;2023-05-10T04:40:02;14.80;99.90
16955;DHT22;8594;52.052;8.354;2023-05-10T04:42:30;14.90;99.90
16955;DHT22;8594;52.052;8.354;2023-05-10T04:44:57;14.80;99.90
16955;DHT22;8594;52.052;8.354;2023-05-10T04:47:25;14.80;99.90
16955;DHT22;8594;52.052;8.354;2023-05-10T04:49:52;14.70;99.90
16955;DHT22;8594;52.052;8.354;2023-05-10T04:52:19;14.70;99.90
16955;DHT22;8594;52.052;8.354;2023-05-10T04:54:46;14.70;99.90
16955;DHT22;8594;52.052;8.354;2023-05-10T04:57:13;14.70;99.90
16955;DHT22;8594;52.052;8.354;2023-05-10T04:59:39;14.70;99.90
16955;DHT22;8594;52.052;8.354;2023-05-10T05:02:06;14.90;99.90
16955;DHT22;8594;52.052;8.354;2023-05-10T05:04:34;15.00;99.90
16955;DHT22;8594;52.052;8.354;2023-05-10T05:07:01;14.90;99.90
16955;DHT22;8594;52.052;8.354;2023-05-10T05:09:28;14.60;99.90
16955;DHT22;8594;52.052;8.354;2023-05-10T05:11:57;14.70;99.90
16955;DHT22;8594;52.052;8.354;2023-05-10T05:14:24;14.80;99.90
16955;DHT22;8594;52.052;8.354;2023-05-10T05:16:51;14.70;99.90
16955;DHT22;8594;52.052;8.354;2023-05-10T05:19:18;14.60;99.90
16955;DHT22;8594;52.052;8.354;2023-05-10T05:21:46;14.50;99.90
16955;DHT22;8594;52.052;8.354;2023-05-10T05:24:13;14.60;99.90
16955;DHT22;8594;52.052;8.354;2023-05-10T05:26:39;14.60;99.90
16955;DHT22;8594;52.052;8.354;2023-05-10T05:29:07;14.50;99.90
16955;DHT22;8594;52.052;8.354;2023-05-10T05:31:33;14.60;99.90
16955;DHT22;8594;52.052;8.354;2023-05-10T05:34:00;14.50;99.90
16955;DHT22;8594;52.052;8.354;2023-05-10T05:36:27;14.40;99.90
16955;DHT22;8594;52.052;8.354;2023-05-10T05:38:55;14.40;99.90
16955;DHT22;8594;52.052;8.354;2023-05-10T05:41:22;14.30;99.90
16955;DHT22;8594;52.052;8.354;2023-05-10T05:43:49;14.40;99.90
16955;DHT22;8594;52.052;8.354;2023-05-10T05:46:17;14.40;99.90
16955;DHT22;8594;52.052;8.354;2023-05-10T05:48:44;14.50;99.90
16955;DHT22;8594;52.052;8.354;2023-05-10T05:51:11;14.60;99.90
16955;DHT22;8594;52.052;8.354;2023-05-10T05:53:37;14.50;99.90
16955;DHT22;8594;52.052;8.354;2023-05-10T05:56:06;14.60;99.90
16955;DHT22;8594;52.052;8.354;2023-05-10T05:58:33;14.70;99.90
16955;DHT22;8594;52.052;8.354;2023-05-10T06:01:00;14.80;99.90
16955;DHT22;8594;52.052;8.354;2023-05-10T06:03:27;14.80;99.90
16955;DHT22;8594;52.052;8.354;2023-05-10T06:05:53;15.00;99.90
16955;DHT22;8594;52.052;8.354;2023-05-10T06:08:20;15.10;99.90
16955;DHT22;8594;52.052;8.354;2023-05-10T06:10:47;15.10;99.90
16955;DHT22;8594;52.052;8.354;2023-05-10T06:13:16;15.00;99.90
16955;DHT22;8594;52.052;8.354;2023-05-10T06:15:42;15.10;99.90
16955;DHT22;8594;52.052;8.354;2023-05-10T06:18:09;15.00;99.90
16955;DHT22;8594;52.052;8.354;2023-05-10T06:20:36;15.10;99.90
16955;DHT22;8594;52.052;8.354;2023-05-10T06:23:02;15.00;99.90
16955;DHT22;8594;52.052;8.354;2023-05-10T06:25:29;15.00;99.90
16955;DHT22;8594;52.052;8.354;2023-05-10T06:27:56;15.10;99.90
16955;DHT22;8594;52.052;8.354;2023-05-10T06:30:25;15.10;99.90
16955;DHT22;8594;52.052;8.354;2023-05-10T06:32:53;15.20;99.90
16955;DHT22;8594;52.052;8.354;2023-05-10T06:35:21;15.30;99.90
16955;DHT22;8594;52.052;8.354;2023-05-10T06:37:48;15.30;99.90
16955;DHT22;8594;52.052;8.354;2023-05-10T06:40:15;15.20;99.90
16955;DHT22;8594;52.052;8.354;2023-05-10T06:42:43;15.10;99.90
16955;DHT22;8594;52.052;8.354;2023-05-10T06:45:12;15.30;99.90
16955;DHT22;8594;52.052;8.354;2023-05-10T06:47:41;15.30;99.90
16955;DHT22;8594;52.052;8.354;2023-05-10T06:50:09;15.30;99.90
16955;DHT22;8594;52.052;8.354;2023-05-10T06:52:36;15.40;99.90
16955;DHT22;8594;52.052;8.354;2023-05-10T06:55:04;15.50;99.90
16955;DHT22;8594;52.052;8.354;2023-05-10T06:57:32;15.40;99.90
16955;DHT22;8594;52.052;8.354;2023-05-10T06:59:59;15.50;99.90
16955;DHT22;8594;52.052;8.354;2023-05-10T07:02:26;15.50;99.90
16955;DHT22;8594;52.052;8.354;2023-05-10T07:04:54;15.50;99.90
16955;DHT22;8594;52.052;8.354;2023-05-10T07:07:21;15.60;99.90
16955;DHT22;8594;52.052;8.354;2023-05-10T07:09:48;15.70;99.90
16955;DHT22;8594;52.052;8.354;2023-05-10T07:12:15;15.70;99.90
16955;DHT22;8594;52.052;8.354;2023-05-10T07:14:42;15.60;99.90
16955;DHT22;8594;52.052;8.354;2023-05-10T07:17:09;15.60;99.90
16955;DHT22;8594;52.052;8.354;2023-05-10T07:19:36;15.50;99.90
16955;DHT22;8594;52.052;8.354;2023-05-10T07:22:04;15.50;99.90
16955;DHT22;8594;52.052;8.354;2023-05-10T07:24:32;15.50;99.90
16955;DHT22;8594;52.052;8.354;2023-05-10T07:26:59;15.70;99.90
16955;DHT22;8594;52.052;8.354;2023-05-10T07:29:26;15.60;99.90
16955;DHT22;8594;52.052;8.354;2023-05-10T07:31:53;15.60;99.90
16955;DHT22;8594;52.052;8.354;2023-05-10T07:34:20;15.60;99.90
16955;DHT22;8594;52.052;8.354;2023-05-10T07:36:47;15.40;99.90
16955;DHT22;8594;52.052;8.354;2023-05-10T07:39:15;15.50;99.90
16955;DHT22;8594;52.052;8.354;2023-05-10T07:41:42;15.60;99.90
16955;DHT22;8594;52.052;8.354;2023-05-10T07:44:09;15.80;99.90
16955;DHT22;8594;52.052;8.354;2023-05-10T07:46:36;15.90;99.90
16955;DHT22;8594;52.052;8.354;2023-05-10T07:49:04;15.70;99.90
16955;DHT22;8594;52.052;8.354;2023-05-10T07:51:31;15.80;99.90
16955;DHT22;8594;52.052;8.354;2023-05-10T07:53:58;15.90;99.90
16955;DHT22;8594;52.052;8.354;2023-05-10T07:56:27;15.80;99.90
16955;DHT22;8594;52.052;8.354;2023-05-10T07:58:56;15.90;99.90
16955;DHT22;8594;52.052;8.354;2023-05-10T08:01:23;16.00;99.90
16955;DHT22;8594;52.052;8.354;2023-05-10T08:03:50;16.00;99.90
16955;DHT22;8594;52.052;8.354;2023-05-10T08:06:18;16.00;99.90
16955;DHT22;8594;52.052;8.354;2023-05-10T08:08:47;16.20;99.90
16955;DHT22;8594;52.052;8.354;2023-05-10T08:11:15;16.30;99.90
16955;DHT22;8594;52.052;8.354;2023-05-10T08:13:44;16.40;99.90
16955;DHT22;8594;52.052;8.354;2023-05-10T08:16:11;16.60;99.90
16955;DHT22;8594;52.052;8.354;2023-05-10T08:18:38;16.60;99.90
16955;DHT22;8594;52.052;8.354;2023-05-10T08:21:06;16.80;99.90
16955;DHT22;8594;52.052;8.354;2023-05-10T08:23:33;17.00;99.90
16955;DHT22;8594;52.052;8.354;2023-05-10T08:26:00;16.90;99.90
16955;DHT22;8594;52.052;8.354;2023-05-10T08:28:27;16.90;99.90
16955;DHT22;8594;52.052;8.354;2023-05-10T08:30:55;16.60;99.90
16955;DHT22;8594;52.052;8.354;2023-05-10T08:33:22;16.70;99.90
16955;DHT22;8594;52.052;8.354;2023-05-10T08:35:49;16.70;99.90
16955;DHT22;8594;52.052;8.354;2023-05-10T08:38:15;16.70;99.90
16955;DHT22;8594;52.052;8.354;2023-05-10T08:40:43;16.70;99.90
16955;DHT22;8594;52.052;8.354;2023-05-10T08:43:12;16.70;99.90
16955;DHT22;8594;52.052;8.354;2023-05-10T08:45:41;16.80;99.90
16955;DHT22;8594;52.052;8.354;2023-05-10T08:48:12;16.90;99.90
16955;DHT22;8594;52.052;8.354;2023-05-10T08:50:39;16.70;99.90
16955;DHT22;8594;52.052;8.354;2023-05-10T08:53:10;16.70;99.90
16955;DHT22;8594;52.052;8.354;2023-05-10T08:55:38;16.70;99.90
16955;DHT22;8594;52.052;8.354;2023-05-10T08:58:08;16.70;99.90
16955;DHT22;8594;52.052;8.354;2023-05-10T09:00:36;16.60;99.90
16955;DHT22;8594;52.052;8.354;2023-05-10T09:03:04;16.40;99.90
16955;DHT22;8594;52.052;8.354;2023-05-10T09:05:33;16.50;99.90
16955;DHT22;8594;52.052;8.354;2023-05-10T09:07:59;16.50;99.90
16955;DHT22;8594;52.052;8.354;2023-05-10T09:10:27;16.70;99.90
16955;DHT22;8594;52.052;8.354;2023-05-10T09:12:56;16.70;99.90
16955;DHT22;8594;52.052;8.354;2023-05-10T09:15:23;16.90;99.90
16955;DHT22;8594;52.052;8.354;2023-05-10T09:17:50;16.70;99.90
16955;DHT22;8594;52.052;8.354;2023-05-10T09:20:17;16.90;99.90
16955;DHT22;8594;52.052;8.354;2023-05-10T09:22:45;17.00;99.90
16955;DHT22;8594;52.052;8.354;2023-05-10T09:25:14;17.30;99.90
16955;DHT22;8594;52.052;8.354;2023-05-10T09:27:45;17.50;99.90
16955;DHT22;8594;52.052;8.354;2023-05-10T09:30:16;17.60;99.90
16955;DHT22;8594;52.052;8.354;2023-05-10T09:32:45;17.70;99.90
16955;DHT22;8594;52.052;8.354;2023-05-10T09:35:15;18.00;99.90
16955;DHT22;8594;52.052;8.354;2023-05-10T09:37:45;18.00;99.90
16955;DHT22;8594;52.052;8.354;2023-05-10T09:40:15;17.80;99.90
16955;DHT22;8594;52.052;8.354;2023-05-10T09:42:51;18.00;99.90
16955;DHT22;8594;52.052;8.354;2023-05-10T09:45:20;18.20;99.90
16955;DHT22;8594;52.052;8.354;2023-05-10T09:47:47;18.40;99.90
16955;DHT22;8594;52.052;8.354;2023-05-10T09:50:14;18.60;99.90
16955;DHT22;8594;52.052;8.354;2023-05-10T09:52:50;18.80;99.90
16955;DHT22;8594;52.052;8.354;2023-05-10T09:55:20;18.90;99.90
16955;DHT22;8594;52.052;8.354;2023-05-10T09:57:48;18.80;99.90
16955;DHT22;8594;52.052;8.354;2023-05-10T10:00:19;18.40;99.90
16955;DHT22;8594;52.052;8.354;2023-05-10T10:02:48;18.40;99.90
16955;DHT22;8594;52.052;8.354;2023-05-10T10:05:21;18.90;99.90
16955;DHT22;8594;52.052;8.354;2023-05-10T10:07:57;19.60;99.90
16955;DHT22;8594;52.052;8.354;2023-05-10T10:10:24;19.70;99.90
16955;DHT22;8594;52.052;8.354;2023-05-10T10:12:52;19.30;99.90
16955;DHT22;8594;52.052;8.354;2023-05-10T10:15:20;19.60;99.90
16955;DHT22;8594;52.052;8.354;2023-05-10T10:17:48;19.70;99.90
16955;DHT22;8594;52.052;8.354;2023-05-10T10:20:16;19.80;99.90
16955;DHT22;8594;52.052;8.354;2023-05-10T10:22:44;20.00;99.90
16955;DHT22;8594;52.052;8.354;2023-05-10T10:25:14;20.50;99.90
16955;DHT22;8594;52.052;8.354;2023-05-10T10:27:47;20.80;99.90
16955;DHT22;8594;52.052;8.354;2023-05-10T10:30:27;20.80;99.90
16955;DHT22;8594;52.052;8.354;2023-05-10T10:33:26;20.50;99.90
16955;DHT22;8594;52.052;8.354;2023-05-10T10:36:03;20.00;99.90
16955;DHT22;8594;52.052;8.354;2023-05-10T10:41:32;19.80;99.90
16955;DHT22;8594;52.052;8.354;2023-05-10T10:44:26;19.80;99.90
16955;DHT22;8594;52.052;8.354;2023-05-10T10:47:20;19.60;99.90
16955;DHT22;8594;52.052;8.354;2023-05-10T10:50:03;19.70;99.90
16955;DHT22;8594;52.052;8.354;2023-05-10T10:52:32;19.70;99.90
16955;DHT22;8594;52.052;8.354;2023-05-10T10:55:02;19.60;99.90
16955;DHT22;8594;52.052;8.354;2023-05-10T10:57:44;19.70;99.90
16955;DHT22;8594;52.052;8.354;2023-05-10T11:00:24;20.20;99.90
16955;DHT22;8594;52.052;8.354;2023-05-10T11:02:54;20.60;99.90
16955;DHT22;8594;52.052;8.354;2023-05-10T11:05:25;20.50;99.90
16955;DHT22;8594;52.052;8.354;2023-05-10T11:08:15;21.00;99.90
16955;DHT22;8594;52.052;8.354;2023-05-10T11:11:03;21.40;99.90
16955;DHT22;8594;52.052;8.354;2023-05-10T11:13:38;21.70;99.90
16955;DHT22;8594;52.052;8.354;2023-05-10T11:16:15;22.10;99.90
16955;DHT22;8594;52.052;8.354;2023-05-10T11:18:54;22.10;99.90
16955;DHT22;8594;52.052;8.354;2023-05-10T11:21:23;22.30;99.90
16955;DHT22;8594;52.052;8.354;2023-05-10T11:23:51;22.30;99.90
16955;DHT22;8594;52.052;8.354;2023-05-10T11:26:22;21.60;99.90
16955;DHT22;8594;52.052;8.354;2023-05-10T11:28:53;21.10;99.90
16955;DHT22;8594;52.052;8.354;2023-05-10T11:31:22;21.00;99.90
16955;DHT22;8594;52.052;8.354;2023-05-10T11:33:53;20.70;99.90
16955;DHT22;8594;52.052;8.354;2023-05-10T11:36:23;20.50;99.90
16955;DHT22;8594;52.052;8.354;2023-05-10T11:38:51;20.40;99.90
16955;DHT22;8594;52.052;8.354;2023-05-10T11:41:19;20.40;99.90
16955;DHT22;8594;52.052;8.354;2023-05-10T11:43:50;20.50;99.90
16955;DHT22;8594;52.052;8.354;2023-05-10T11:46:21;20.70;99.90
16955;DHT22;8594;52.052;8.354;2023-05-10T11:48:50;21.10;99.90
16955;DHT22;8594;52.052;8.354;2023-05-10T11:51:20;20.90;99.90
16955;DHT22;8594;52.052;8.354;2023-05-10T11:53:49;20.80;99.90
16955;DHT22;8594;52.052;8.354;2023-05-10T11:56:16;21.40;99.90
16955;DHT22;8594;52.052;8.354;2023-05-10T11:58:43;21.70;99.90
16955;DHT22;8594;52.052;8.354;2023-05-10T12:01:13;21.90;99.90
16955;DHT22;8594;52.052;8.354;2023-05-10T12:03:42;22.10;99.90
16955;DHT22;8594;52.052;8.354;2023-05-10T12:06:10;22.40;99.90
16955;DHT22;8594;52.052;8.354;2023-05-10T12:08:44;22.50;99.90
16955;DHT22;8594;52.052;8.354;2023-05-10T12:11:12;23.10;99.90
16955;DHT22;8594;52.052;8.354;2023-05-10T12:13:42;22.90;99.90
16955;DHT22;8594;52.052;8.354;2023-05-10T12:16:16;22.60;99.90
16955;DHT22;8594;52.052;8.354;2023-05-10T12:18:45;22.30;99.90
16955;DHT22;8594;52.052;8.354;2023-05-10T12:21:15;22.40;99.90
16955;DHT22;8594;52.052;8.354;2023-05-10T12:23:42;22.30;99.90
16955;DHT22;8594;52.052;8.354;2023-05-10T12:26:11;22.10;99.90
16955;DHT22;8594;52.052;8.354;2023-05-10T12:28:38;21.80;99.90
16955;DHT22;8594;52.052;8.354;2023-05-10T12:31:05;21.80;99.90
16955;DHT22;8594;52.052;8.354;2023-05-10T12:33:38;21.50;99.90
16955;DHT22;8594;52.052;8.354;2023-05-10T12:36:08;21.20;99.90
16955;DHT22;8594;52.052;8.354;2023-05-10T12:38:37;21.50;99.90
16955;DHT22;8594;52.052;8.354;2023-05-10T12:41:09;22.10;99.90
16955;DHT22;8594;52.052;8.354;2023-05-10T12:43:37;22.40;99.90
16955;DHT22;8594;52.052;8.354;2023-05-10T12:46:06;22.50;99.90
16955;DHT22;8594;52.052;8.354;2023-05-10T12:48:34;22.20;99.90
16955;DHT22;8594;52.052;8.354;2023-05-10T12:51:03;22.10;99.90
16955;DHT22;8594;52.052;8.354;2023-05-10T12:53:31;21.90;99.90
16955;DHT22;8594;52.052;8.354;2023-05-10T12:55:57;21.80;99.90
16955;DHT22;8594;52.052;8.354;2023-05-10T12:58:24;21.60;99.90
16955;DHT22;8594;52.052;8.354;2023-05-10T13:00:51;21.10;99.90
16955;DHT22;8594;52.052;8.354;2023-05-10T13:03:18;20.90;99.90
16955;DHT22;8594;52.052;8.354;2023-05-10T13:05:45;20.60;99.90
16955;DHT22;8594;52.052;8.354;2023-05-10T13:08:14;20.50;99.90
16955;DHT22;8594;52.052;8.354;2023-05-10T13:10:40;20.40;99.90
16955;DHT22;8594;52.052;8.354;2023-05-10T13:13:07;20.20;99.90
16955;DHT22;8594;52.052;8.354;2023-05-10T13:15:35;20.00;99.90
16955;DHT22;8594;52.052;8.354;2023-05-10T13:18:02;19.80;99.90
16955;DHT22;8594;52.052;8.354;2023-05-10T13:20:28;19.20;99.90
16955;DHT22;8594;52.052;8.354;2023-05-10T13:22:55;18.90;99.90
16955;DHT22;8594;52.052;8.354;2023-05-10T13:25:23;18.60;99.90
16955;DHT22;8594;52.052;8.354;2023-05-10T13:27:50;18.50;99.90
16955;DHT22;8594;52.052;8.354;2023-05-10T13:30:17;18.40;99.90
16955;DHT22;8594;52.052;8.354;2023-05-10T13:32:44;18.30;99.90
16955;DHT22;8594;52.052;8.354;2023-05-10T13:35:11;18.30;99.90
16955;DHT22;8594;52.052;8.354;2023-05-10T13:37:37;18.00;99.90
16955;DHT22;8594;52.052;8.354;2023-05-10T13:40:05;18.00;99.90
16955;DHT22;8594;52.052;8.354;2023-05-10T13:42:34;18.20;99.90
16955;DHT22;8594;52.052;8.354;2023-05-10T13:45:01;18.20;99.90
16955;DHT22;8594;52.052;8.354;2023-05-10T13:47:28;18.30;99.90
16955;DHT22;8594;52.052;8.354;2023-05-10T13:49:55;18.30;99.90
16955;DHT22;8594;52.052;8.354;2023-05-10T13:52:23;18.40;99.90
16955;DHT22;8594;52.052;8.354;2023-05-10T13:54:49;18.60;99.90
16955;DHT22;8594;52.052;8.354;2023-05-10T13:57:17;18.70;99.90
16955;DHT22;8594;52.052;8.354;2023-05-10T13:59:45;18.90;99.90
16955;DHT22;8594;52.052;8.354;2023-05-10T14:02:13;19.00;99.90
16955;DHT22;8594;52.052;8.354;2023-05-10T14:04:40;19.40;99.90
16955;DHT22;8594;52.052;8.354;2023-05-10T14:07:06;19.50;99.90
16955;DHT22;8594;52.052;8.354;2023-05-10T14:09:33;19.70;99.90
16955;DHT22;8594;52.052;8.354;2023-05-10T14:12:00;19.60;99.90
16955;DHT22;8594;52.052;8.354;2023-05-10T14:14:27;19.70;99.90
16955;DHT22;8594;52.052;8.354;2023-05-10T14:16:56;19.50;99.90
16955;DHT22;8594;52.052;8.354;2023-05-10T14:19:22;19.50;99.90
16955;DHT22;8594;52.052;8.354;2023-05-10T14:21:49;19.60;99.90
16955;DHT22;8594;52.052;8.354;2023-05-10T14:24:17;19.50;99.90
16955;DHT22;8594;52.052;8.354;2023-05-10T14:26:44;19.60;99.90
16955;DHT22;8594;52.052;8.354;2023-05-10T14:29:11;19.70;99.90
16955;DHT22;8594;52.052;8.354;2023-05-10T14:31:38;20.00;99.90
16955;DHT22;8594;52.052;8.354;2023-05-10T14:34:07;20.00;99.90
16955;DHT22;8594;52.052;8.354;2023-05-10T14:36:34;19.80;99.90
16955;DHT22;8594;52.052;8.354;2023-05-10T14:39:01;19.90;99.90
16955;DHT22;8594;52.052;8.354;2023-05-10T14:41:28;20.10;99.90
16955;DHT22;8594;52.052;8.354;2023-05-10T14:43:56;20.10;99.90
16955;DHT22;8594;52.052;8.354;2023-05-10T14:46:23;20.00;99.90
16955;DHT22;8594;52.052;8.354;2023-05-10T14:48:49;20.00;99.90
16955;DHT22;8594;52.052;8.354;2023-05-10T14:51:20;19.60;99.90
16955;DHT22;8594;52.052;8.354;2023-05-10T14:53:47;19.50;99.90
16955;DHT22;8594;52.052;8.354;2023-05-10T14:56:14;19.00;99.90
16955;DHT22;8594;52.052;8.354;2023-05-10T14:58:41;18.60;99.90
16955;DHT22;8594;52.052;8.354;2023-05-10T15:01:08;19.00;99.90
16955;DHT22;8594;52.052;8.354;2023-05-10T15:03:35;19.10;99.90
16955;DHT22;8594;52.052;8.354;2023-05-10T15:06:02;19.10;99.90
16955;DHT22;8594;52.052;8.354;2023-05-10T15:08:31;19.00;99.90
16955;DHT22;8594;52.052;8.354;2023-05-10T15:10:57;18.80;99.90
16955;DHT22;8594;52.052;8.354;2023-05-10T15:13:24;18.70;99.90
16955;DHT22;8594;52.052;8.354;2023-05-10T15:15:53;18.60;99.90
16955;DHT22;8594;52.052;8.354;2023-05-10T15:18:20;18.40;99.90
16955;DHT22;8594;52.052;8.354;2023-05-10T15:20:47;18.20;99.90
16955;DHT22;8594;52.052;8.354;2023-05-10T15:23:14;18.30;99.90
16955;DHT22;8594;52.052;8.354;2023-05-10T15:25:42;18.30;99.90
16955;DHT22;8594;52.052;8.354;2023-05-10T15:28:09;18.60;99.90
16955;DHT22;8594;52.052;8.354;2023-05-10T15:30:35;18.60;99.90
16955;DHT22;8594;52.052;8.354;2023-05-10T15:33:02;18.70;99.90
16955;DHT22;8594;52.052;8.354;2023-05-10T15:35:29;18.50;99.90
16955;DHT22;8594;52.052;8.354;2023-05-10T15:37:56;18.60;99.90
16955;DHT22;8594;52.052;8.354;2023-05-10T15:40:23;18.40;99.90
16955;DHT22;8594;52.052;8.354;2023-05-10T15:42:51;18.40;99.90
16955;DHT22;8594;52.052;8.354;2023-05-10T15:45:17;18.20;99.90
16955;DHT22;8594;52.052;8.354;2023-05-10T15:47:45;18.00;99.90
16955;DHT22;8594;52.052;8.354;2023-05-10T15:50:11;18.00;99.90
16955;DHT22;8594;52.052;8.354;2023-05-10T15:52:38;18.10;99.90
16955;DHT22;8594;52.052;8.354;2023-05-10T15:55:06;18.00;99.90
16955;DHT22;8594;52.052;8.354;2023-05-10T15:57:37;17.80;99.90
16955;DHT22;8594;52.052;8.354;2023-05-10T16:00:08;17.80;99.90
16955;DHT22;8594;52.052;8.354;2023-05-10T16:02:37;17.70;99.90